createdAt,value
2023-03-10T00:00:31.018Z,23.90
2023-03-10T00:02:35.106Z,24.35
2023-03-10T00:04:39.950Z,24.45
2023-03-10T00:06:43.400Z,23.13
2023-03-10T00:08:47.137Z,23.83
2023-03-10T00:10:50.523Z,23.50
2023-03-10T00:12:53.947Z,23.58
2023-03-10T00:14:57.529Z,22.25
2023-03-10T00:17:00.973Z,23.67
2023-03-10T00:19:04.594Z,23.80
2023-03-10T00:21:14.648Z,23.52
2023-03-10T00:23:18.182Z,22.83
2023-03-10T00:25:21.615Z,22.85
2023-03-10T00:27:25.055Z,23.38
2023-03-10T00:29:28.559Z,22.92
2023-03-10T00:31:32.680Z,23.10
2023-03-10T00:33:37.235Z,23.40
2023-03-10T00:35:40.667Z,23.63
2023-03-10T00:37:45.505Z,23.55
2023-03-10T00:39:52.733Z,23.92
2023-03-10T00:41:56.108Z,22.80
2023-03-10T00:44:00.787Z,23.17
2023-03-10T00:46:04.286Z,25.25
2023-03-10T00:48:08.262Z,23.20
2023-03-10T00:50:13.380Z,23.83
2023-03-10T00:52:16.959Z,23.38
2023-03-10T00:54:21.831Z,24.65
2023-03-10T00:56:27.105Z,24.02
2023-03-10T00:58:31.755Z,24.50
2023-03-10T01:00:35.243Z,24.55
2023-03-10T01:02:39.090Z,24.73
2023-03-10T01:04:42.589Z,23.52
2023-03-10T01:06:47.772Z,23.98
2023-03-10T01:08:51.789Z,23.50
2023-03-10T01:10:56.644Z,23.45
2023-03-10T01:13:00.171Z,23.75
2023-03-10T01:15:03.620Z,23.38
2023-03-10T01:17:07.033Z,23.48
2023-03-10T01:19:10.505Z,23.80
2023-03-10T01:21:18.417Z,23.30
2023-03-10T01:23:23.839Z,23.50
2023-03-10T01:25:28.063Z,24.48
2023-03-10T01:27:32.913Z,23.42
2023-03-10T01:29:36.448Z,23.60
2023-03-10T01:31:42.089Z,23.40
2023-03-10T01:33:46.054Z,23.73
2023-03-10T01:35:49.571Z,23.50
2023-03-10T01:37:53.837Z,24.30
2023-03-10T01:39:57.232Z,24.50
2023-03-10T01:42:01.453Z,24.13
2023-03-10T01:44:07.220Z,25.08
2023-03-10T01:46:37.223Z,24.65
2023-03-10T01:48:44.573Z,22.95
2023-03-10T01:50:52.750Z,24.67
2023-03-10T01:52:58.586Z,24.88
2023-03-10T01:55:07.801Z,24.55
2023-03-10T01:57:12.746Z,23.50
2023-03-10T01:59:18.059Z,25.42
2023-03-10T02:01:21.851Z,23.55
2023-03-10T02:03:28.346Z,22.83
2023-03-10T02:05:33.542Z,23.13
2023-03-10T02:07:38.118Z,24.08
2023-03-10T02:09:45.461Z,23.00
2023-03-10T02:11:50.662Z,22.23
2023-03-10T02:13:55.698Z,22.17
2023-03-10T02:16:00.767Z,22.60
2023-03-10T02:18:07.056Z,23.20
2023-03-10T02:20:21.145Z,21.88
2023-03-10T02:22:24.615Z,21.45
2023-03-10T02:24:35.902Z,20.40
2023-03-10T02:26:49.393Z,22.20
2023-03-10T02:28:58.621Z,22.08
2023-03-10T02:31:03.613Z,21.60
2023-03-10T02:33:12.580Z,22.08
2023-03-10T02:35:16.768Z,22.00
2023-03-10T02:37:30.199Z,22.65
2023-03-10T02:39:33.667Z,21.77
2023-03-10T02:41:40.087Z,21.17
2023-03-10T02:43:49.127Z,20.95
2023-03-10T02:46:02.702Z,21.27
2023-03-10T02:48:08.258Z,20.73
2023-03-10T02:50:14.828Z,20.75
2023-03-10T02:52:26.762Z,21.45
2023-03-10T02:54:30.262Z,20.08
2023-03-10T02:56:34.358Z,20.45
2023-03-10T02:58:38.190Z,21.05
2023-03-10T03:00:46.006Z,21.83
2023-03-10T03:02:52.060Z,21.83
2023-03-10T03:04:56.730Z,20.38
2023-03-10T03:07:01.561Z,20.38
2023-03-10T03:09:05.338Z,20.40
2023-03-10T03:11:09.101Z,19.98
2023-03-10T03:13:13.196Z,20.13
2023-03-10T03:15:17.412Z,20.85
2023-03-10T03:17:21.040Z,19.85
2023-03-10T03:19:28.668Z,20.40
2023-03-10T03:21:33.485Z,20.38
2023-03-10T03:23:38.160Z,20.00
2023-03-10T03:25:44.093Z,20.48
2023-03-10T03:27:51.203Z,20.80
2023-03-10T03:29:54.943Z,21.02
2023-03-10T03:31:58.634Z,19.88
2023-03-10T03:34:06.940Z,20.42
2023-03-10T03:36:12.255Z,20.88
2023-03-10T03:38:16.108Z,20.75
2023-03-10T03:40:20.485Z,20.77
2023-03-10T03:42:24.027Z,21.60
2023-03-10T03:44:31.924Z,22.13
2023-03-10T03:46:36.364Z,21.85
2023-03-10T03:48:40.755Z,22.50
2023-03-10T03:50:45.649Z,22.38
2023-03-10T03:53:03.494Z,23.38
2023-03-10T03:55:09.205Z,23.05
2023-03-10T03:57:14.393Z,21.90
2023-03-10T03:59:18.150Z,22.77
2023-03-10T04:01:21.715Z,21.52
2023-03-10T04:03:29.847Z,23.52
2023-03-10T04:05:33.878Z,23.17
2023-03-10T04:07:40.141Z,22.58
2023-03-10T04:09:46.924Z,21.80
2023-03-10T04:11:50.477Z,23.83
2023-03-10T04:13:54.591Z,22.40
2023-03-10T04:15:59.262Z,23.02
2023-03-10T04:18:08.402Z,23.42
2023-03-10T04:20:13.579Z,22.42
2023-03-10T04:22:19.820Z,22.63
2023-03-10T04:24:24.761Z,23.17
2023-03-10T04:26:30.810Z,21.98
2023-03-10T04:28:34.186Z,22.70
2023-03-10T04:30:37.711Z,23.23
2023-03-10T04:32:41.296Z,22.88
2023-03-10T04:34:45.731Z,23.85
2023-03-10T04:36:49.674Z,22.98
2023-03-10T04:38:53.161Z,23.42
2023-03-10T04:40:59.732Z,24.23
2023-03-10T04:43:09.090Z,23.50
2023-03-10T04:45:13.471Z,23.95
2023-03-10T04:47:17.591Z,24.02
2023-03-10T04:49:21.197Z,24.60
2023-03-10T04:51:25.666Z,24.20
2023-03-10T04:53:32.611Z,22.33
2023-03-10T04:55:36.871Z,23.67
2023-03-10T04:57:41.790Z,24.20
2023-03-10T04:59:46.691Z,24.13
2023-03-10T05:01:52.509Z,23.70
2023-03-10T05:03:56.421Z,23.95
2023-03-10T05:06:00.845Z,24.48
2023-03-10T05:08:05.282Z,24.83
2023-03-10T05:10:09.949Z,24.77
2023-03-10T05:12:13.835Z,24.00
2023-03-10T05:14:18.617Z,23.52
2023-03-10T05:16:24.401Z,25.15
2023-03-10T05:18:29.687Z,23.40
2023-03-10T05:20:34.101Z,24.20
2023-03-10T05:22:39.394Z,24.45
2023-03-10T05:24:45.090Z,24.05
2023-03-10T05:26:49.170Z,24.58
2023-03-10T05:28:52.656Z,25.33
2023-03-10T05:31:09.314Z,20.70
2023-03-10T05:33:14.135Z,24.70
2023-03-10T05:35:17.888Z,24.40
2023-03-10T05:37:22.314Z,25.13
2023-03-10T05:39:26.958Z,24.77
2023-03-10T05:41:32.681Z,23.80
2023-03-10T05:43:37.083Z,25.98
2023-03-10T05:45:41.052Z,24.83
2023-03-10T05:47:46.583Z,26.38
2023-03-10T05:49:53.992Z,24.42
2023-03-10T05:51:57.750Z,26.55
2023-03-10T05:54:01.192Z,26.45
2023-03-10T05:56:07.422Z,26.27
2023-03-10T05:58:10.819Z,25.77
2023-03-10T06:00:16.769Z,26.17
2023-03-10T06:02:30.716Z,26.13
2023-03-10T06:04:34.129Z,26.70
2023-03-10T06:06:39.039Z,25.20
2023-03-10T06:08:43.162Z,25.90
2023-03-10T06:10:46.693Z,26.13
2023-03-10T06:12:50.104Z,25.42
2023-03-10T06:14:53.699Z,25.27
2023-03-10T06:16:57.822Z,25.70
2023-03-10T06:19:01.214Z,25.23
2023-03-10T06:21:06.794Z,24.98
2023-03-10T06:23:11.800Z,25.58
2023-03-10T06:25:15.374Z,24.58
2023-03-10T06:27:18.984Z,24.45
2023-03-10T06:29:22.400Z,23.75
2023-03-10T06:31:26.149Z,23.70
2023-03-10T06:33:30.253Z,23.67
2023-03-10T06:35:33.907Z,23.90
2023-03-10T06:37:37.324Z,22.92
2023-03-10T06:39:42.383Z,23.63
2023-03-10T06:41:45.792Z,22.95
2023-03-10T06:43:49.634Z,22.65
2023-03-10T06:45:53.270Z,21.58
2023-03-10T06:47:57.106Z,22.27
2023-03-10T06:50:03.566Z,21.55
2023-03-10T06:52:07.476Z,21.65
2023-03-10T06:54:10.863Z,21.85
2023-03-10T06:56:18.006Z,21.20
2023-03-10T06:58:21.467Z,21.73
2023-03-10T07:00:25.206Z,21.08
2023-03-10T07:02:28.642Z,20.65
2023-03-10T07:04:32.095Z,20.98
2023-03-10T07:06:35.653Z,19.60
2023-03-10T07:08:39.281Z,20.67
2023-03-10T07:10:42.709Z,20.73
2023-03-10T07:12:54.695Z,19.00
2023-03-10T07:14:58.102Z,19.25
2023-03-10T07:17:01.731Z,18.50
2023-03-10T07:19:05.280Z,18.67
2023-03-10T07:21:09.815Z,19.08
2023-03-10T07:23:13.988Z,18.88
2023-03-10T07:25:17.621Z,19.25
2023-03-10T07:27:23.775Z,19.02
2023-03-10T07:29:28.676Z,18.58
2023-03-10T07:31:32.821Z,17.05
2023-03-10T07:33:36.803Z,18.40
2023-03-10T07:35:40.332Z,18.25
2023-03-10T07:37:43.768Z,18.08
2023-03-10T07:39:47.287Z,17.83
2023-03-10T07:41:50.688Z,18.23
2023-03-10T07:43:55.694Z,18.50
2023-03-10T07:46:00.598Z,18.95
2023-03-10T07:48:04.072Z,18.25
2023-03-10T07:50:08.340Z,18.83
2023-03-10T07:52:11.748Z,17.40
2023-03-10T07:54:15.157Z,17.52
2023-03-10T07:56:18.589Z,17.77
2023-03-10T07:58:22.213Z,18.65
2023-03-10T08:00:25.662Z,18.52
2023-03-10T08:02:30.460Z,18.70
2023-03-10T08:04:34.130Z,17.95
2023-03-10T08:06:38.137Z,18.50
2023-03-10T08:08:41.636Z,19.10
2023-03-10T08:10:45.242Z,18.30
2023-03-10T08:12:48.679Z,17.80
2023-03-10T08:14:52.112Z,18.00
2023-03-10T08:16:56.825Z,18.13
2023-03-10T08:19:01.715Z,18.40
2023-03-10T08:21:06.765Z,17.33
2023-03-10T08:23:10.170Z,18.67
2023-03-10T08:25:13.722Z,17.67
2023-03-10T08:27:17.191Z,18.05
2023-03-10T08:29:20.731Z,19.10
2023-03-10T08:31:24.303Z,18.40
2023-03-10T08:33:28.800Z,18.70
2023-03-10T08:35:33.783Z,18.98
2023-03-10T08:37:37.729Z,18.42
2023-03-10T08:39:41.411Z,18.27
2023-03-10T08:41:49.408Z,18.70
2023-03-10T08:43:54.773Z,18.50
2023-03-10T08:45:58.184Z,17.75
2023-03-10T08:48:01.652Z,17.88
2023-03-10T08:50:06.053Z,17.50
2023-03-10T08:52:10.874Z,17.88
2023-03-10T08:54:17.758Z,17.15
2023-03-10T08:56:23.615Z,18.65
2023-03-10T08:58:27.307Z,17.50
2023-03-10T09:00:30.713Z,17.10
2023-03-10T09:02:34.627Z,17.38
2023-03-10T09:04:38.089Z,17.65
2023-03-10T09:06:41.879Z,18.10
2023-03-10T09:08:48.358Z,17.17
2023-03-10T09:10:51.964Z,17.30
2023-03-10T09:13:11.031Z,16.98
2023-03-10T09:15:16.631Z,18.23
2023-03-10T09:17:20.435Z,18.45
2023-03-10T09:19:24.249Z,17.10
2023-03-10T09:21:32.013Z,17.95
2023-03-10T09:23:36.658Z,17.20
2023-03-10T09:25:41.948Z,17.83
2023-03-10T09:27:46.723Z,17.17
2023-03-10T09:29:50.220Z,17.73
2023-03-10T09:31:53.722Z,18.27
2023-03-10T09:33:57.160Z,16.88
2023-03-10T09:36:07.476Z,17.52
2023-03-10T09:38:11.456Z,17.27
2023-03-10T09:40:18.739Z,17.35
2023-03-10T09:42:38.534Z,17.55
2023-03-10T09:44:50.526Z,17.55
2023-03-10T09:47:06.827Z,18.42
2023-03-10T09:49:17.824Z,17.75
2023-03-10T09:51:24.174Z,13.68
2023-03-10T09:53:41.398Z,18.30
2023-03-10T09:55:48.542Z,17.58
2023-03-10T09:57:55.781Z,18.75
2023-03-10T10:00:05.177Z,18.25
2023-03-10T10:02:18.009Z,19.98
2023-03-10T10:04:29.169Z,18.88
2023-03-10T10:06:40.322Z,19.23
2023-03-10T10:09:01.920Z,19.58
2023-03-10T10:11:17.237Z,19.05
2023-03-10T10:13:29.849Z,19.83
2023-03-10T10:15:48.207Z,20.52
2023-03-10T10:18:18.357Z,20.45
2023-03-10T10:20:34.176Z,20.38
2023-03-10T10:22:44.933Z,20.10
2023-03-10T10:25:16.329Z,20.87
2023-03-10T10:27:26.410Z,20.90
2023-03-10T10:29:39.583Z,20.48
2023-03-10T10:32:03.443Z,20.55
2023-03-10T10:34:23.393Z,20.63
2023-03-10T10:36:32.120Z,20.45
2023-03-10T10:38:41.034Z,20.42
2023-03-10T10:40:54.060Z,20.85
2023-03-10T10:43:01.652Z,20.33
2023-03-10T10:45:30.778Z,21.30
2023-03-10T10:47:51.462Z,20.75
2023-03-10T10:50:10.714Z,20.95
2023-03-10T10:52:27.361Z,21.08
2023-03-10T10:54:40.312Z,21.25
2023-03-10T10:56:57.198Z,20.50
2023-03-10T10:59:08.651Z,21.17
2023-03-10T11:01:17.972Z,20.20
2023-03-10T11:03:32.981Z,22.00
2023-03-10T11:05:38.737Z,21.02
2023-03-10T11:07:42.560Z,22.70
2023-03-10T11:09:46.050Z,23.02
2023-03-10T11:11:59.293Z,22.48
2023-03-10T11:14:14.759Z,21.80
2023-03-10T11:16:25.861Z,21.50
2023-03-10T11:18:35.378Z,21.48
2023-03-10T11:20:48.337Z,21.50
2023-03-10T11:23:00.172Z,22.63
2023-03-10T11:25:12.102Z,22.52
2023-03-10T11:27:21.879Z,22.60
2023-03-10T11:29:39.531Z,22.83
2023-03-10T11:31:53.718Z,22.45
2023-03-10T11:34:05.610Z,22.80
2023-03-10T11:36:24.462Z,22.65
2023-03-10T11:38:37.842Z,23.00
2023-03-10T11:40:48.777Z,22.60
2023-03-10T11:43:00.207Z,23.52
2023-03-10T11:45:22.992Z,24.30
2023-03-10T11:47:43.180Z,22.85
2023-03-10T11:49:55.618Z,22.65
2023-03-10T11:52:02.511Z,23.88
2023-03-10T11:54:15.340Z,22.50
2023-03-10T11:56:21.767Z,23.88
2023-03-10T11:58:30.265Z,22.92
2023-03-10T12:00:37.720Z,23.65
2023-03-10T12:02:49.512Z,23.48
2023-03-10T12:04:59.043Z,23.85
2023-03-10T12:07:08.136Z,23.73
2023-03-10T12:09:19.570Z,22.20
2023-03-10T12:11:27.235Z,21.85
2023-03-10T12:13:38.261Z,21.52
2023-03-10T12:15:42.246Z,21.73
2023-03-10T12:17:49.395Z,22.52
2023-03-10T12:20:26.928Z,22.20
2023-03-10T12:22:39.245Z,19.42
2023-03-10T12:24:45.704Z,19.85
2023-03-10T12:27:07.175Z,20.52
2023-03-10T12:29:34.751Z,19.80
2023-03-10T12:31:56.781Z,19.27
2023-03-10T12:34:15.337Z,19.38
2023-03-10T12:36:37.685Z,20.08
2023-03-10T12:38:45.690Z,18.25
2023-03-10T12:40:49.940Z,20.10
2023-03-10T12:42:53.415Z,19.52
2023-03-10T12:45:17.441Z,19.20
2023-03-10T12:47:44.772Z,18.20
2023-03-10T12:49:56.351Z,19.15
2023-03-10T12:54:16.647Z,17.73
2023-03-10T12:56:23.819Z,17.00
2023-03-10T12:58:28.968Z,18.10
2023-03-10T13:00:41.374Z,18.52
2023-03-10T13:02:50.929Z,17.90
2023-03-10T13:05:02.758Z,20.17
2023-03-10T13:09:22.027Z,18.48
2023-03-10T13:11:31.978Z,18.73
2023-03-10T13:13:38.995Z,18.88
2023-03-10T13:15:42.398Z,18.77
2023-03-10T13:17:45.881Z,18.80
2023-03-10T13:20:01.378Z,20.00
2023-03-10T13:22:05.953Z,18.05
2023-03-10T13:24:25.047Z,18.63
2023-03-10T13:26:28.888Z,17.52
2023-03-10T13:28:35.717Z,18.48
2023-03-10T13:30:39.257Z,17.23
2023-03-10T13:32:43.452Z,16.75
2023-03-10T13:34:47.234Z,16.92
2023-03-10T13:36:52.029Z,16.45
2023-03-10T13:38:56.501Z,16.42
2023-03-10T13:41:02.245Z,15.98
2023-03-10T13:43:08.155Z,16.60
2023-03-10T13:45:22.383Z,15.82
2023-03-10T13:47:28.310Z,17.00
2023-03-10T13:49:35.668Z,16.35
2023-03-10T13:51:39.261Z,16.05
2023-03-10T13:53:44.404Z,16.38
2023-03-10T13:55:47.849Z,16.48
2023-03-10T13:57:53.139Z,16.55
2023-03-10T13:59:58.731Z,16.55
2023-03-10T14:02:03.357Z,17.00
2023-03-10T14:04:09.616Z,16.30
2023-03-10T14:06:16.285Z,16.10
2023-03-10T14:08:22.317Z,15.88
2023-03-10T14:10:27.427Z,15.38
2023-03-10T14:12:38.780Z,15.35
2023-03-10T14:14:42.889Z,15.93
2023-03-10T14:16:53.869Z,15.98
2023-03-10T14:18:57.268Z,15.55
2023-03-10T14:21:24.994Z,16.92
2023-03-10T14:23:35.624Z,14.52
2023-03-10T14:25:42.591Z,15.00
2023-03-10T14:27:48.347Z,15.65
2023-03-10T14:29:53.499Z,15.52
2023-03-10T14:31:57.930Z,15.45
2023-03-10T14:34:01.545Z,15.60
2023-03-10T14:36:10.938Z,15.30
2023-03-10T14:38:14.548Z,15.55
2023-03-10T14:40:19.379Z,15.93
2023-03-10T14:42:30.255Z,15.05
2023-03-10T14:44:34.589Z,15.45
2023-03-10T14:46:38.272Z,16.23
2023-03-10T14:48:42.303Z,15.75
2023-03-10T14:50:46.445Z,15.98
2023-03-10T14:52:49.865Z,16.85
2023-03-10T14:54:53.385Z,15.95
2023-03-10T14:56:59.367Z,15.85
2023-03-10T14:59:06.693Z,15.95
2023-03-10T15:01:10.260Z,15.68
2023-03-10T15:03:14.515Z,15.70
2023-03-10T15:05:19.303Z,15.95
2023-03-10T15:07:22.951Z,17.10
2023-03-10T15:09:26.540Z,17.77
2023-03-10T15:11:36.864Z,16.58
2023-03-10T15:13:41.172Z,16.83
2023-03-10T15:15:48.178Z,16.95
2023-03-10T15:17:52.414Z,16.63
2023-03-10T15:19:58.224Z,16.48
2023-03-10T15:22:01.782Z,16.55
2023-03-10T15:24:07.647Z,16.73
2023-03-10T15:26:12.643Z,15.95
2023-03-10T15:28:16.275Z,16.48
2023-03-10T15:30:21.568Z,16.42
2023-03-10T15:32:26.410Z,15.63
2023-03-10T15:34:29.949Z,15.93
2023-03-10T15:36:33.489Z,15.20
2023-03-10T15:38:36.922Z,14.88
2023-03-10T15:40:40.303Z,15.35
2023-03-10T15:42:44.190Z,15.02
2023-03-10T15:44:49.413Z,14.80
2023-03-10T15:46:55.077Z,14.77
2023-03-10T15:49:00.916Z,15.18
2023-03-10T15:51:09.797Z,15.25
2023-03-10T15:53:13.844Z,16.17
2023-03-10T15:55:18.981Z,14.80
2023-03-10T15:57:22.486Z,14.02
2023-03-10T15:59:26.042Z,15.30
2023-03-10T16:01:29.753Z,15.43
2023-03-10T16:03:36.043Z,15.45
2023-03-10T16:05:49.133Z,15.40
2023-03-10T16:07:52.974Z,15.00
2023-03-10T16:09:56.710Z,14.88
2023-03-10T16:12:00.127Z,15.40
2023-03-10T16:14:03.702Z,14.57
2023-03-10T16:16:08.029Z,14.77
2023-03-10T16:18:11.538Z,14.98
2023-03-10T16:20:16.976Z,15.10
2023-03-10T16:22:22.070Z,14.30
2023-03-10T16:24:25.647Z,14.30
2023-03-10T16:26:29.825Z,13.25
2023-03-10T16:28:36.706Z,14.43
2023-03-10T16:30:43.351Z,14.40
2023-03-10T16:32:47.195Z,14.38
2023-03-10T16:34:50.627Z,14.68
2023-03-10T16:36:56.017Z,14.52
2023-03-10T16:39:01.005Z,14.70
2023-03-10T16:41:05.118Z,14.10
2023-03-10T16:43:08.547Z,14.25
2023-03-10T16:45:12.597Z,14.48
2023-03-10T16:47:18.004Z,13.60
2023-03-10T16:49:21.553Z,13.70
2023-03-10T16:51:28.373Z,14.30
2023-03-10T16:53:31.812Z,14.00
2023-03-10T16:55:36.613Z,13.93
2023-03-10T16:57:40.268Z,14.32
2023-03-10T16:59:44.774Z,14.68
2023-03-10T17:01:48.929Z,14.82
2023-03-10T17:03:52.823Z,14.38
2023-03-10T17:05:56.319Z,13.95
2023-03-10T17:08:02.737Z,14.02
2023-03-10T17:10:07.016Z,13.88
2023-03-10T17:12:11.965Z,15.73
2023-03-10T17:14:17.522Z,14.57
2023-03-10T17:16:23.569Z,14.70
2023-03-10T17:18:27.066Z,13.82
2023-03-10T17:20:30.607Z,14.05
2023-03-10T17:22:34.214Z,13.98
2023-03-10T17:24:37.632Z,13.40
2023-03-10T17:26:41.356Z,13.90
2023-03-10T17:28:47.759Z,13.90
2023-03-10T17:30:51.111Z,13.35
2023-03-10T17:32:54.515Z,13.75
2023-03-10T17:34:57.902Z,13.68
2023-03-10T17:37:01.709Z,15.13
2023-03-10T17:39:06.569Z,14.38
2023-03-10T17:41:11.911Z,14.50
2023-03-10T17:43:32.971Z,14.27
2023-03-10T17:45:38.901Z,14.88
2023-03-10T17:47:42.475Z,15.43
2023-03-10T17:49:45.809Z,15.18
2023-03-10T17:51:49.473Z,16.00
2023-03-10T17:53:54.311Z,15.65
2023-03-10T17:55:58.241Z,15.90
2023-03-10T17:58:01.752Z,15.93
2023-03-10T18:00:06.111Z,16.13
2023-03-10T18:02:16.869Z,17.23
2023-03-10T18:04:20.497Z,21.60
2023-03-10T18:06:25.622Z,20.50
2023-03-10T18:08:29.305Z,20.05
2023-03-10T18:10:34.555Z,17.33
2023-03-10T18:12:38.397Z,217.10
2023-03-10T18:14:41.869Z,156.50
2023-03-10T18:16:45.338Z,98.20
2023-03-10T18:18:50.779Z,23.77
2023-03-10T18:20:54.460Z,20.25
2023-03-10T18:22:58.072Z,18.70
2023-03-10T18:25:01.864Z,19.17
2023-03-10T18:27:05.356Z,18.67
2023-03-10T18:29:08.833Z,19.65
2023-03-10T18:31:18.589Z,19.73
2023-03-10T18:33:22.267Z,19.77
2023-03-10T18:35:27.251Z,19.13
2023-03-10T18:37:33.394Z,19.23
2023-03-10T18:39:38.162Z,19.48
2023-03-10T18:41:42.762Z,19.55
2023-03-10T18:43:46.196Z,18.23
2023-03-10T18:45:49.852Z,18.50
2023-03-10T18:47:53.406Z,17.85
2023-03-10T18:49:58.564Z,19.45
2023-03-10T18:52:03.403Z,19.45
2023-03-10T18:54:07.172Z,18.40
2023-03-10T18:56:11.637Z,18.67
2023-03-10T18:58:15.241Z,19.55
2023-03-10T19:00:20.555Z,19.13
2023-03-10T19:02:24.182Z,19.00
2023-03-10T19:04:27.752Z,18.80
2023-03-10T19:06:31.976Z,19.90
2023-03-10T19:08:38.237Z,19.65
2023-03-10T19:10:41.918Z,19.30
2023-03-10T19:12:45.437Z,19.58
2023-03-10T19:14:48.936Z,19.65
2023-03-10T19:16:52.436Z,20.40
2023-03-10T19:18:55.984Z,20.52
2023-03-10T19:21:00.950Z,20.83
2023-03-10T19:23:04.546Z,19.65
2023-03-10T19:25:13.063Z,22.27
2023-03-10T19:27:16.546Z,19.58
2023-03-10T19:29:20.128Z,19.55
2023-03-10T19:31:26.097Z,18.63
2023-03-10T19:33:29.625Z,18.38
2023-03-10T19:35:33.200Z,18.58
2023-03-10T19:37:37.068Z,18.13
2023-03-10T19:39:40.850Z,18.50
2023-03-10T19:41:45.985Z,17.77
2023-03-10T19:43:50.695Z,17.25
2023-03-10T19:46:00.722Z,17.15
2023-03-10T19:48:04.256Z,16.63
2023-03-10T19:50:10.203Z,17.15
2023-03-10T19:52:14.168Z,16.52
2023-03-10T19:54:17.870Z,16.45
2023-03-10T19:56:22.527Z,16.08
2023-03-10T19:58:27.552Z,15.77
2023-03-10T20:00:36.227Z,16.92
2023-03-10T20:02:42.421Z,17.25
2023-03-10T20:04:47.766Z,16.75
2023-03-10T20:06:51.289Z,17.00
2023-03-10T20:08:59.254Z,17.67
2023-03-10T20:11:04.202Z,17.95
2023-03-10T20:13:07.667Z,16.92
2023-03-10T20:15:12.598Z,17.38
2023-03-10T20:17:17.989Z,15.13
2023-03-10T20:19:23.049Z,16.52
2023-03-10T20:21:27.536Z,16.52
2023-03-10T20:23:31.135Z,15.98
2023-03-10T20:25:34.562Z,16.70
2023-03-10T20:27:38.509Z,16.50
2023-03-10T20:29:43.175Z,17.20
2023-03-10T20:31:48.106Z,17.17
2023-03-10T20:33:51.686Z,15.98
2023-03-10T20:35:55.512Z,16.00
2023-03-10T20:37:59.192Z,15.85
2023-03-10T20:40:02.837Z,15.43
2023-03-10T20:42:06.465Z,15.23
2023-03-10T20:44:14.568Z,15.10
2023-03-10T20:46:19.475Z,14.48
2023-03-10T20:48:24.677Z,12.98
2023-03-10T20:50:28.287Z,12.73
2023-03-10T20:52:34.022Z,13.07
2023-03-10T20:54:37.404Z,13.30
2023-03-10T20:56:40.894Z,13.68
2023-03-10T20:58:44.280Z,13.32
2023-03-10T21:00:48.417Z,15.10
2023-03-10T21:02:53.374Z,13.50
2023-03-10T21:04:58.257Z,13.88
2023-03-10T21:07:01.709Z,14.13
2023-03-10T21:09:06.872Z,13.27
2023-03-10T21:11:10.333Z,13.93
2023-03-10T21:13:13.801Z,13.02
2023-03-10T21:15:19.411Z,14.05
2023-03-10T21:17:23.253Z,13.38
2023-03-10T21:19:26.832Z,11.05
2023-03-10T21:21:34.538Z,12.63
2023-03-10T21:23:39.408Z,12.98
2023-03-10T21:25:43.723Z,11.68
2023-03-10T21:27:49.634Z,12.63
2023-03-10T21:29:53.098Z,11.93
2023-03-10T21:31:56.551Z,12.63
2023-03-10T21:34:00.017Z,11.93
2023-03-10T21:36:03.998Z,12.15
2023-03-10T21:38:08.796Z,11.70
2023-03-10T21:40:15.051Z,12.85
2023-03-10T21:42:18.762Z,12.13
2023-03-10T21:44:22.206Z,12.77
2023-03-10T21:46:27.056Z,13.40
2023-03-10T21:48:32.503Z,13.10
2023-03-10T21:50:36.230Z,12.63
2023-03-10T21:52:40.252Z,13.40
2023-03-10T21:54:45.129Z,12.93
2023-03-10T21:56:48.651Z,13.90
2023-03-10T21:58:55.869Z,13.23
2023-03-10T22:00:59.496Z,13.68
2023-03-10T22:03:03.708Z,14.00
2023-03-10T22:05:07.948Z,13.73
2023-03-10T22:07:11.542Z,13.40
2023-03-10T22:09:15.657Z,13.13
2023-03-10T22:11:20.764Z,12.85
2023-03-10T22:13:24.340Z,13.63
2023-03-10T22:15:28.607Z,13.10
2023-03-10T22:17:32.084Z,13.20
2023-03-10T22:19:35.648Z,12.80
2023-03-10T22:21:39.091Z,12.45
2023-03-10T22:23:43.803Z,13.07
2023-03-10T22:25:47.412Z,12.82
2023-03-10T22:27:54.758Z,12.18
2023-03-10T22:30:00.954Z,13.27
2023-03-10T22:32:04.895Z,13.15
2023-03-10T22:34:08.338Z,12.85
2023-03-10T22:36:14.000Z,12.73
2023-03-10T22:38:17.394Z,13.32
2023-03-10T22:40:22.853Z,12.90
2023-03-10T22:42:26.433Z,12.63
2023-03-10T22:44:36.339Z,13.63
2023-03-10T22:46:39.950Z,13.23
2023-03-10T22:48:44.484Z,12.82
2023-03-10T22:50:47.936Z,12.73
2023-03-10T22:52:51.685Z,12.50
2023-03-10T22:54:55.128Z,12.80
2023-03-10T22:56:58.746Z,12.73
2023-03-10T22:59:04.058Z,13.20
2023-03-10T23:01:09.144Z,12.95
2023-03-10T23:03:14.007Z,13.25
2023-03-10T23:05:18.821Z,13.02
2023-03-10T23:07:22.196Z,12.90
2023-03-10T23:09:25.592Z,13.30
2023-03-10T23:11:29.188Z,13.00
2023-03-10T23:13:32.601Z,12.00
2023-03-10T23:15:38.191Z,12.32
2023-03-10T23:17:42.983Z,13.48
2023-03-10T23:19:51.238Z,13.52
2023-03-10T23:21:54.573Z,13.35
2023-03-10T23:23:57.966Z,14.50
2023-03-10T23:26:01.395Z,14.30
2023-03-10T23:28:06.378Z,13.93
2023-03-10T23:30:11.164Z,14.40
2023-03-10T23:32:14.953Z,14.73
2023-03-10T23:34:19.783Z,14.07
2023-03-10T23:36:23.199Z,14.73
2023-03-10T23:38:27.440Z,14.82
2023-03-10T23:40:32.112Z,14.30
2023-03-10T23:42:37.175Z,14.80
2023-03-10T23:44:40.636Z,15.60
2023-03-10T23:46:43.991Z,15.15
2023-03-10T23:48:47.298Z,15.75
2023-03-10T23:50:52.498Z,16.02
2023-03-10T23:52:56.870Z,16.50
2023-03-10T23:55:00.531Z,15.75
2023-03-10T23:57:03.906Z,16.02
2023-03-10T23:59:07.346Z,16.77
